Putney, South Dakota
Current Conditions -  °F | °C
As of 11:53 AM on Friday 28 Nov 2014 (Local Time) from KABR Reporting Station
Few Clouds Few Clouds  
Wind Chill: 10°   Ceiling: Unl
Heat Index: 20°   Visibility: 10mi
Dew Point: 14°   Wind: 8mph
Humidity: 78%   Direction: 50°NE
Pressure: 29.76"   Gusts: NA
Location:  45.4583°N, 98.1109°W
Report Text: KABR 281753Z AUTO 05007KT 10SM FEW120 M07/M10 A2976 RMK AO2 SLP101 T10671100 11067 21106 58019
Loading
Personal Weather Stations






























Interactive Weather Map New forecast layout! Learn more

10-Day Weather Forecast

Advertisements
Track Severe Weather on mobile